Time;durP1;ratioP1;P1;durP2;ratioP2;P2;SDS_P1;SDS_P2;PMS_P1;PMS_P2;Temp;Humidity;BMP_temperature;BMP_pressure;BME280_temperature;BME280_humidity;BME280_pressure;Samples;Min_cycle;Max_cycle;Signal;HPM_P1;HPM_P2
2022/07/27 00:01:24;;;;;;;2.25;1.90;;;;;;;17.32;71.22;100239.34;4994655;28;20073;-72
2022/07/27 00:03:50;;;;;;;3.05;1.80;;;;;;;17.29;72.03;100242.53;4994915;28;20026;-70
2022/07/27 00:06:16;;;;;;;2.08;1.55;;;;;;;17.26;71.59;100241.50;4994922;28;20034;-72
2022/07/27 00:08:42;;;;;;;1.83;1.73;;;;;;;17.23;71.98;100236.03;4994586;28;20395;-71
2022/07/27 00:11:09;;;;;;;1.50;1.40;;;;;;;17.21;72.66;100238.66;4992717;28;20026;-72
2022/07/27 00:13:37;;;;;;;2.28;1.58;;;;;;;17.16;72.56;100225.84;4994698;28;20022;-72
2022/07/27 00:16:02;;;;;;;3.53;2.08;;;;;;;17.16;72.50;100237.41;4977406;28;20030;-72
2022/07/27 00:18:30;;;;;;;1.80;1.70;;;;;;;17.15;72.54;100240.81;4994208;28;20444;-73
2022/07/27 00:20:56;;;;;;;2.03;1.90;;;;;;;17.13;72.89;100234.81;4993869;28;20396;-74
2022/07/27 00:23:23;;;;;;;3.28;2.28;;;;;;;17.11;72.55;100238.25;4993069;28;20100;-73
2022/07/27 00:25:48;;;;;;;2.80;1.95;;;;;;;17.10;72.90;100247.44;4994433;28;20023;-74
2022/07/27 00:28:14;;;;;;;2.50;2.30;;;;;;;17.09;73.28;100240.13;4976738;28;20048;-72
2022/07/27 00:30:39;;;;;;;2.45;2.25;;;;;;;17.09;73.18;100248.78;4993321;28;20036;-73
2022/07/27 00:33:06;;;;;;;4.93;2.60;;;;;;;17.05;73.23;100245.38;4992876;28;20113;-73
2022/07/27 00:35:31;;;;;;;2.38;2.17;;;;;;;16.99;73.50;100246.22;4994220;28;20030;-73
2022/07/27 00:37:58;;;;;;;2.55;2.35;;;;;;;16.95;73.36;100248.63;4993043;28;20030;-73
2022/07/27 00:40:25;;;;;;;2.65;2.45;;;;;;;16.90;73.27;100242.91;4993720;28;20042;-72
2022/07/27 00:42:51;;;;;;;7.28;2.38;;;;;;;16.82;73.25;100247.72;4994024;28;20030;-72
2022/07/27 00:45:18;;;;;;;2.67;2.30;;;;;;;16.73;73.22;100257.50;4994332;28;20110;-73
2022/07/27 00:47:43;;;;;;;3.72;2.40;;;;;;;16.70;73.19;100260.69;4994264;28;20038;-73
2022/07/27 00:50:09;;;;;;;3.10;2.55;;;;;;;16.63;73.51;100259.16;4994126;28;20378;-74
2022/07/27 00:52:50;;;;;;;4.18;2.80;;;;;;;16.61;74.14;100263.88;4995491;28;20482;-73
2022/07/27 00:55:31;;;;;;;3.35;2.50;;;;;;;16.58;74.64;100262.06;5013145;28;20030;-72
2022/07/27 00:57:57;;;;;;;3.50;2.90;;;;;;;16.43;74.61;100233.56;5013359;28;20037;-73
2022/07/27 01:00:22;;;;;;;4.03;3.22;;;;;;;16.53;74.74;100257.88;4997012;28;20102;-72
2022/07/27 01:02:48;;;;;;;4.95;3.33;;;;;;;16.49;74.57;100252.41;4980410;28;20491;-73
2022/07/27 01:05:14;;;;;;;3.25;2.95;;;;;;;16.51;74.65;100255.53;4996737;28;20460;-72
2022/07/27 01:07:45;;;;;;;3.70;3.28;;;;;;;16.52;75.23;100248.44;4980378;28;20073;-73
2022/07/27 01:10:11;;;;;;;4.15;3.40;;;;;;;16.51;75.37;100249.75;4996646;28;20125;-73
2022/07/27 01:12:37;;;;;;;3.22;2.95;;;;;;;16.47;75.32;100249.25;4996698;28;20060;-73
2022/07/27 01:15:07;;;;;;;4.65;3.40;;;;;;;16.47;75.28;100254.25;4997831;28;20071;-74
2022/07/27 01:17:36;;;;;;;4.75;2.78;;;;;;;16.44;75.73;100259.00;4996550;28;20046;-73
2022/07/27 01:20:01;;;;;;;3.38;3.03;;;;;;;16.45;75.71;100259.78;4995978;28;20050;-73
2022/07/27 01:22:36;;;;;;;3.38;3.08;;;;;;;16.47;75.71;100266.56;4978923;28;20022;-72
2022/07/27 01:25:25;;;;;;;3.05;2.75;;;;;;;16.47;76.49;100260.03;4996531;28;20018;-72
2022/07/27 01:27:51;;;;;;;4.30;2.88;;;;;;;16.50;76.50;100261.84;4989085;28;20528;-69
2022/07/27 01:30:28;;;;;;;3.28;3.08;;;;;;;16.48;76.45;100253.72;4997649;28;20101;-70
2022/07/27 01:33:07;;;;;;;4.63;2.78;;;;;;;16.52;76.67;100256.31;4997725;28;20109;-71
2022/07/27 01:35:39;;;;;;;4.22;3.40;;;;;;;16.50;76.58;100261.84;4997479;28;20430;-70
2022/07/27 01:38:06;;;;;;;3.58;3.28;;;;;;;16.47;76.42;100251.38;4996339;28;20026;-70
2022/07/27 01:40:32;;;;;;;4.63;3.70;;;;;;;16.43;76.28;100263.19;4979968;28;20180;-70
2022/07/27 01:43:03;;;;;;;5.57;3.72;;;;;;;16.43;76.82;100273.94;4996167;28;20037;-70
2022/07/27 01:45:30;;;;;;;4.55;4.13;;;;;;;16.45;77.10;100260.53;4997475;28;20361;-70
2022/07/27 01:47:57;;;;;;;4.05;3.30;;;;;;;16.49;77.53;100266.84;4995996;28;20545;-70
2022/07/27 01:50:22;;;;;;;3.53;3.22;;;;;;;16.56;77.42;100268.38;4997245;28;20026;-69
2022/07/27 01:52:48;;;;;;;4.80;3.05;;;;;;;16.58;77.31;100259.19;4995797;28;20380;-70
2022/07/27 01:55:15;;;;;;;3.60;3.22;;;;;;;16.62;76.82;100265.44;4995751;28;20022;-70
2022/07/27 01:57:41;;;;;;;4.70;3.30;;;;;;;16.59;76.50;100270.19;4996851;28;20458;-70
2022/07/27 02:00:27;;;;;;;4.38;3.33;;;;;;;16.56;76.37;100265.47;4997551;28;20038;-70
2022/07/27 02:02:54;;;;;;;3.72;3.38;;;;;;;16.53;76.37;100258.69;4994036;28;20130;-70
2022/07/27 02:05:19;;;;;;;6.50;3.70;;;;;;;16.56;76.67;100262.59;4995213;28;20487;-70
2022/07/27 02:07:45;;;;;;;4.82;4.40;;;;;;;16.59;76.42;100269.41;4996505;28;20018;-71
2022/07/27 02:10:11;;;;;;;3.67;2.92;;;;;;;16.60;76.33;100268.84;4994217;28;20058;-71
2022/07/27 02:12:50;;;;;;;4.50;3.25;;;;;;;16.63;76.06;100282.22;4995385;28;20022;-69
2022/07/27 02:15:20;;;;;;;4.28;3.85;;;;;;;16.62;76.40;100277.78;4994129;28;20104;-71
2022/07/27 02:17:49;;;;;;;3.92;3.13;;;;;;;16.66;76.41;100280.38;4994098;28;20387;-71
2022/07/27 02:20:24;;;;;;;3.40;3.10;;;;;;;16.66;76.37;100274.59;4994093;28;20026;-71
2022/07/27 02:22:50;;;;;;;4.07;3.65;;;;;;;16.70;76.51;100293.19;4995323;28;20121;-69
2022/07/27 02:25:18;;;;;;;3.40;3.10;;;;;;;16.73;76.43;100292.13;4994041;28;20100;-71
2022/07/27 02:27:43;;;;;;;3.95;3.55;;;;;;;16.79;76.15;100292.88;4995402;28;20033;-70
2022/07/27 02:30:11;;;;;;;4.88;3.05;;;;;;;16.83;76.11;100296.25;5009548;28;20109;-71
2022/07/27 02:32:39;;;;;;;3.95;3.50;;;;;;;16.87;76.03;100290.97;4977793;28;20038;-70
2022/07/27 02:35:05;;;;;;;5.57;4.20;;;;;;;16.93;75.82;100296.69;4995268;28;20030;-70
2022/07/27 02:37:32;;;;;;;25.15;4.20;;;;;;;16.88;75.62;100294.63;4996273;28;20464;-70
2022/07/27 02:39:58;;;;;;;3.85;3.45;;;;;;;16.78;75.27;100285.53;4994070;28;20034;-70
2022/07/27 02:42:23;;;;;;;4.70;3.50;;;;;;;16.78;75.21;100294.19;4995095;28;20105;-69
2022/07/27 02:44:49;;;;;;;3.35;3.05;;;;;;;16.73;75.31;100295.00;4994829;28;20133;-71
2022/07/27 02:47:15;;;;;;;5.07;3.95;;;;;;;16.66;75.69;100278.25;4993529;28;20054;-71
2022/07/27 02:49:43;;;;;;;7.32;3.95;;;;;;;16.61;75.45;100278.31;4994117;28;20574;-71
2022/07/27 02:52:09;;;;;;;4.68;3.50;;;;;;;16.54;75.67;100274.69;4994742;28;20025;-71
2022/07/27 02:54:35;;;;;;;4.18;3.78;;;;;;;16.56;75.78;100282.78;4991355;28;20559;-69
2022/07/27 02:57:03;;;;;;;5.50;3.83;;;;;;;16.47;75.86;100277.31;4995891;28;20026;-70
2022/07/27 02:59:30;;;;;;;4.55;3.65;;;;;;;16.46;75.62;100279.44;4995949;28;20353;-70
2022/07/27 03:01:56;;;;;;;4.30;3.33;;;;;;;16.43;75.97;100280.50;4994394;28;20495;-71
2022/07/27 03:04:22;;;;;;;5.85;3.83;;;;;;;16.42;76.56;100287.59;4995619;28;20030;-69
2022/07/27 03:06:48;;;;;;;3.92;3.55;;;;;;;16.46;76.71;100293.84;4995606;28;20353;-70
2022/07/27 03:09:13;;;;;;;5.85;3.97;;;;;;;16.45;76.59;100294.41;4994490;28;20113;-70
2022/07/27 03:11:39;;;;;;;5.90;3.90;;;;;;;16.45;77.05;100294.41;4995285;28;20526;-70
2022/07/27 03:14:06;;;;;;;7.05;3.83;;;;;;;16.42;76.72;100292.56;4993879;28;20381;-70
2022/07/27 03:16:32;;;;;;;8.15;4.05;;;;;;;16.39;77.05;100303.09;5010572;28;20034;-70
2022/07/27 03:18:58;;;;;;;5.15;3.95;;;;;;;16.42;77.44;100310.66;4994823;28;20042;-70
2022/07/27 03:21:24;;;;;;;5.88;4.30;;;;;;;16.44;77.25;100307.25;4995517;28;20117;-70
2022/07/27 03:23:52;;;;;;;5.18;3.88;;;;;;;16.47;77.46;100317.72;4994163;28;20030;-71
2022/07/27 03:26:18;;;;;;;6.07;4.47;;;;;;;16.50;77.19;100310.88;4995545;28;20018;-70
2022/07/27 03:28:44;;;;;;;4.95;4.45;;;;;;;16.48;77.10;100308.53;4994244;28;20479;-71
2022/07/27 03:31:09;;;;;;;5.88;4.13;;;;;;;16.51;76.94;100310.34;4994022;28;20054;-70
2022/07/27 03:33:36;;;;;;;5.60;4.68;;;;;;;16.57;76.95;100318.19;4995103;28;20408;-72
2022/07/27 03:36:03;;;;;;;6.90;4.05;;;;;;;16.60;76.73;100315.03;4993944;28;20034;-70
2022/07/27 03:38:29;;;;;;;4.38;3.70;;;;;;;16.63;76.76;100316.84;4994574;28;20050;-71
2022/07/27 03:40:55;;;;;;;4.97;4.05;;;;;;;16.73;76.56;100318.09;4991818;28;20038;-70
2022/07/27 03:43:20;;;;;;;4.43;3.65;;;;;;;16.78;76.51;100305.72;4994661;28;20068;-70
2022/07/27 03:45:47;;;;;;;6.10;4.45;;;;;;;16.84;76.54;100309.34;4994847;28;20113;-71
2022/07/27 03:48:12;;;;;;;5.10;4.60;;;;;;;16.89;76.30;100314.31;4993504;28;20026;-70
2022/07/27 03:50:39;;;;;;;4.82;4.32;;;;;;;16.98;76.04;100307.41;4994847;28;20030;-70
2022/07/27 03:53:05;;;;;;;7.07;3.90;;;;;;;17.10;76.23;100308.06;4994954;28;20030;-70
2022/07/27 03:55:31;;;;;;;4.45;3.92;;;;;;;17.19;75.83;100299.09;4994735;28;20038;-71
2022/07/27 03:57:56;;;;;;;4.70;4.15;;;;;;;17.28;75.27;100302.41;4994526;28;20101;-70
2022/07/27 04:00:21;;;;;;;5.63;4.35;;;;;;;17.30;74.57;100301.84;4994339;28;20034;-71
2022/07/27 04:02:48;;;;;;;6.13;4.07;;;;;;;17.31;74.77;100295.53;4994396;28;20033;-71
2022/07/27 04:05:14;;;;;;;5.53;4.32;;;;;;;17.37;74.29;100295.47;5009791;28;20483;-72
2022/07/27 04:07:42;;;;;;;6.10;3.90;;;;;;;17.45;73.89;100289.91;4993090;28;20378;-71
2022/07/27 04:10:10;;;;;;;4.70;3.80;;;;;;;17.50;73.87;100294.84;4994677;28;20062;-71
2022/07/27 04:12:38;;;;;;;5.53;4.18;;;;;;;17.60;73.42;100290.25;4994376;28;20022;-71
2022/07/27 04:15:13;;;;;;;5.25;4.25;;;;;;;17.68;73.54;100282.56;4994283;28;20034;-71
2022/07/27 04:17:38;;;;;;;4.47;4.05;;;;;;;17.79;72.76;100285.31;4994216;28;20038;-70
2022/07/27 04:20:05;;;;;;;4.47;4.05;;;;;;;17.96;72.67;100280.09;4992718;28;20050;-71
2022/07/27 04:22:32;;;;;;;5.25;3.55;;;;;;;18.14;72.19;100284.31;4994447;28;20070;-71
2022/07/27 04:24:57;;;;;;;11.77;4.05;;;;;;;18.33;71.56;100287.25;4993009;28;20034;-70
2022/07/27 04:27:22;;;;;;;9.93;3.92;;;;;;;18.48;70.55;100291.22;4992432;28;20026;-71
2022/07/27 04:29:48;;;;;;;3.58;3.28;;;;;;;18.64;69.92;100292.31;4994081;28;20085;-71
2022/07/27 04:32:13;;;;;;;6.30;4.75;;;;;;;18.80;69.47;100296.28;4992963;28;20125;-71
2022/07/27 04:34:39;;;;;;;11.65;4.22;;;;;;;18.96;68.45;100298.13;4994175;28;20379;-70
2022/07/27 04:37:05;;;;;;;13.15;3.92;;;;;;;19.09;68.30;100301.84;4994340;28;20133;-70
2022/07/27 04:39:30;;;;;;;5.45;3.65;;;;;;;19.18;67.37;100299.88;4992904;28;20125;-70
2022/07/27 04:41:57;;;;;;;4.07;3.30;;;;;;;19.20;66.40;100308.81;4994002;28;20120;-71
2022/07/27 04:44:23;;;;;;;3.85;3.53;;;;;;;19.20;66.25;100306.69;4976554;28;20033;-70
2022/07/27 04:46:48;;;;;;;6.95;5.18;;;;;;;19.20;66.32;100315.38;4992857;28;20030;-70
2022/07/27 04:49:14;;;;;;;4.80;3.75;;;;;;;19.20;66.14;100309.59;4993803;28;20038;-71
2022/07/27 04:51:42;;;;;;;3.50;3.20;;;;;;;19.33;66.20;100303.81;4992769;28;20026;-70
2022/07/27 04:54:08;;;;;;;3.03;2.70;;;;;;;19.47;65.74;100308.28;5008861;28;20041;-70
2022/07/27 04:56:33;;;;;;;5.80;2.60;;;;;;;19.64;65.04;100307.97;4993973;28;20026;-71
2022/07/27 04:59:01;;;;;;;3.97;3.15;;;;;;;19.75;64.41;100298.28;5011079;28;20475;-71
2022/07/27 05:01:26;;;;;;;7.97;3.42;;;;;;;19.83;64.02;100302.84;5012045;28;20022;-71
2022/07/27 05:03:58;;;;;;;5.00;3.13;;;;;;;19.87;63.43;100296.69;5012182;28;20030;-71
2022/07/27 05:06:24;;;;;;;3.58;3.17;;;;;;;19.93;63.60;100306.06;5013145;28;20100;-72
2022/07/27 05:08:49;;;;;;;3.72;2.95;;;;;;;19.97;63.33;100306.53;5013527;28;20069;-72
2022/07/27 05:11:15;;;;;;;5.22;3.22;;;;;;;20.13;63.23;100313.34;5013161;28;20463;-72
2022/07/27 05:13:55;;;;;;;7.65;4.05;;;;;;;20.40;62.50;100315.63;5013557;28;20029;-76
2022/07/27 05:16:21;;;;;;;7.25;3.75;;;;;;;20.60;61.14;100316.22;4995963;28;20052;-75
2022/07/27 05:18:46;;;;;;;4.38;3.03;;;;;;;20.74;60.59;100332.31;4995306;28;20495;-76
2022/07/27 05:21:13;;;;;;;3.00;2.70;;;;;;;20.81;60.04;100334.50;4995469;28;20092;-75
2022/07/27 05:23:38;;;;;;;6.78;3.70;;;;;;;20.94;60.08;100334.44;5011899;28;20036;-75
2022/07/27 05:26:05;;;;;;;3.92;2.92;;;;;;;21.16;59.97;100350.56;5013011;28;20112;-74
2022/07/27 05:28:30;;;;;;;6.38;3.83;;;;;;;21.42;59.37;100353.34;5013019;28;20030;-72
2022/07/27 05:30:56;;;;;;;5.28;2.97;;;;;;;21.74;58.53;100353.03;5012989;28;20044;-72
2022/07/27 05:33:21;;;;;;;4.70;3.10;;;;;;;22.00;57.64;100364.47;5013134;28;20034;-72
2022/07/27 05:35:47;;;;;;;13.00;3.80;;;;;;;22.03;56.66;100368.34;5013391;28;20037;-71
2022/07/27 05:38:14;;;;;;;4.47;3.40;;;;;;;22.06;56.06;100368.00;5014955;28;20041;-72
2022/07/27 05:40:43;;;;;;;6.57;4.38;;;;;;;22.13;55.79;100360.66;5016014;28;20060;-71
2022/07/27 05:43:08;;;;;;;5.60;4.55;;;;;;;22.21;54.97;100360.75;5015425;28;20048;-71
2022/07/27 05:45:34;;;;;;;8.52;3.88;;;;;;;22.42;55.83;100341.81;5015357;28;20116;-72
2022/07/27 05:48:05;;;;;;;3.70;3.40;;;;;;;22.73;54.67;100336.88;5015600;28;20022;-72
2022/07/27 05:50:32;;;;;;;5.03;3.00;;;;;;;23.11;54.08;100344.97;5015454;28;20471;-71
2022/07/27 05:52:59;;;;;;;23.92;6.90;;;;;;;23.39;52.38;100353.56;5015075;28;20034;-71
2022/07/27 05:55:24;;;;;;;8.73;3.25;;;;;;;23.62;52.17;100345.59;5015575;28;20057;-71
2022/07/27 05:57:50;;;;;;;5.65;3.28;;;;;;;23.86;51.60;100360.94;5015238;28;20073;-71
2022/07/27 06:00:17;;;;;;;4.28;3.35;;;;;;;23.97;50.71;100357.63;5015296;28;20032;-74
2022/07/27 06:02:43;;;;;;;5.53;2.88;;;;;;;24.05;50.42;100364.25;5015993;28;20379;-73
2022/07/27 06:05:09;;;;;;;13.82;5.57;;;;;;;24.18;50.30;100367.72;5015429;28;20030;-73
2022/07/27 06:10:18;;;;;;;4.25;2.55;;;;;;;24.46;49.77;100363.75;5015075;28;20511;-73
2022/07/27 06:12:45;;;;;;;4.82;2.40;;;;;;;24.51;49.04;100368.59;5015096;28;20029;-73
2022/07/27 06:15:22;;;;;;;3.53;2.30;;;;;;;24.41;48.88;100367.66;5013659;28;20549;-74
2022/07/27 06:17:51;;;;;;;3.50;2.58;;;;;;;24.34;49.15;100361.88;4996618;28;20066;-73
2022/07/27 06:20:17;;;;;;;6.18;3.28;;;;;;;24.36;49.34;100367.88;5014658;28;20509;-73
2022/07/27 06:22:51;;;;;;;7.65;2.65;;;;;;;24.33;49.79;100366.16;5014730;28;20109;-74
2022/07/27 06:25:18;;;;;;;5.45;2.72;;;;;;;24.35;49.43;100367.09;5016085;28;20022;-73
2022/07/27 06:27:45;;;;;;;2.88;2.30;;;;;;;24.33;48.90;100369.06;4998323;28;20128;-74
2022/07/27 06:30:13;;;;;;;2.50;2.30;;;;;;;24.28;48.40;100364.22;5015867;28;20435;-74
2022/07/27 06:32:40;;;;;;;4.55;2.60;;;;;;;24.28;49.04;100381.75;5014818;28;20444;-72
2022/07/27 06:35:22;;;;;;;8.02;2.75;;;;;;;24.38;48.73;100374.69;4981946;28;20502;-73
2022/07/27 06:37:53;;;;;;;7.55;2.70;;;;;;;24.69;48.91;100372.44;5014416;28;20486;-73
2022/07/27 06:40:33;;;;;;;9.45;3.25;;;;;;;24.97;47.57;100374.28;5014653;28;20037;-73
2022/07/27 06:42:59;;;;;;;3.07;2.77;;;;;;;25.09;46.31;100372.44;5015358;28;20482;-74
2022/07/27 06:45:26;;;;;;;6.78;3.22;;;;;;;25.32;46.62;100364.28;5015653;28;20277;-74
2022/07/27 06:47:53;;;;;;;7.00;2.60;;;;;;;25.57;46.09;100364.34;5015504;28;20022;-75
2022/07/27 06:50:19;;;;;;;2.53;2.10;;;;;;;25.72;45.30;100370.06;5013821;28;20034;-75
2022/07/27 06:52:49;;;;;;;10.43;2.78;;;;;;;25.87;44.84;100367.00;5014344;28;20034;-73
2022/07/27 06:55:17;;;;;;;2.92;1.85;;;;;;;25.90;44.81;100383.34;5014346;28;20052;-75
2022/07/27 06:57:44;;;;;;;4.05;2.83;;;;;;;25.98;44.68;100374.47;5015293;28;20034;-74
2022/07/27 07:00:11;;;;;;;5.78;2.50;;;;;;;26.00;44.11;100376.81;5014070;28;20025;-74
2022/07/27 07:02:51;;;;;;;4.63;2.88;;;;;;;26.08;43.87;100380.44;5015088;28;20383;-74
2022/07/27 07:05:17;;;;;;;5.65;2.53;;;;;;;25.98;43.84;100383.25;5010399;28;20533;-74
2022/07/27 07:07:44;;;;;;;4.70;2.00;;;;;;;25.99;44.66;100376.03;5001105;28;20045;-74
2022/07/27 07:10:09;;;;;;;3.35;1.50;;;;;;;26.08;43.60;100375.34;5014538;28;20064;-73
2022/07/27 07:12:35;;;;;;;2.50;1.42;;;;;;;26.07;42.85;100376.75;5001096;28;20483;-73
2022/07/27 07:15:01;;;;;;;2.60;2.05;;;;;;;25.97;43.05;100361.22;5010984;28;20099;-74
2022/07/27 07:17:28;;;;;;;3.50;1.55;;;;;;;26.17;43.29;100368.84;4981601;28;20034;-73
2022/07/27 07:19:54;;;;;;;10.90;2.90;;;;;;;26.66;43.14;100372.97;5005858;28;20502;-74
2022/07/27 07:22:21;;;;;;;3.60;1.88;;;;;;;27.46;41.64;100366.38;4993079;28;20431;-73
2022/07/27 07:24:49;;;;;;;5.10;1.48;;;;;;;28.54;39.80;100360.97;4999624;28;20364;-75
2022/07/27 07:27:14;;;;;;;2.58;1.70;;;;;;;29.15;37.32;100355.28;5004977;28;20053;-73
2022/07/27 07:29:45;;;;;;;2.05;1.05;;;;;;;29.29;36.99;100346.72;4994056;28;20372;-72
2022/07/27 07:32:10;;;;;;;;;;;;;;;29.81;36.19;100343.09;4993454;28;20049;-73
2022/07/27 07:34:37;;;;;;;6.30;1.73;;;;;;;32.08;33.46;100347.94;4995311;28;20351;-77
2022/07/27 07:37:02;;;;;;;3.40;1.27;;;;;;;34.84;30.82;100331.59;4995025;28;20280;-77
2022/07/27 07:39:29;;;;;;;3.00;1.35;;;;;;;37.57;25.22;100340.16;4995127;28;20030;-76
2022/07/27 07:41:56;;;;;;;7.63;2.05;;;;;;;38.92;22.46;100336.13;4995044;28;20072;-78
2022/07/27 07:44:21;;;;;;;3.38;2.20;;;;;;;38.02;23.50;100342.59;4993710;28;20026;-79
2022/07/27 07:46:49;;;;;;;4.05;1.90;;;;;;;36.34;24.98;100354.34;4992799;28;20114;-80
2022/07/27 07:49:14;;;;;;;5.65;1.52;;;;;;;34.99;27.02;100333.06;4993219;28;20058;-79
2022/07/27 07:51:40;;;;;;;4.93;1.80;;;;;;;34.27;28.19;100339.78;4975828;28;20031;-79
2022/07/27 07:54:05;;;;;;;6.60;1.52;;;;;;;34.38;27.95;100341.06;4991853;28;20023;-80
2022/07/27 07:56:30;;;;;;;4.82;1.85;;;;;;;33.82;28.11;100340.34;4992936;28;20071;-79
2022/07/27 07:59:03;;;;;;;6.55;1.52;;;;;;;32.79;29.75;100342.56;4992967;28;20452;-79
2022/07/27 08:01:31;;;;;;;4.20;1.60;;;;;;;32.48;29.94;100340.78;4993217;28;20039;-79
2022/07/27 08:03:57;;;;;;;1.17;0.95;;;;;;;33.26;28.27;100352.78;4993109;28;20026;-79
2022/07/27 08:06:23;;;;;;;1.65;0.90;;;;;;;33.53;27.77;100352.81;4993584;28;20042;-80
2022/07/27 08:08:49;;;;;;;3.72;1.50;;;;;;;33.62;27.70;100347.34;4992958;28;20033;-79
2022/07/27 08:11:14;;;;;;;3.30;1.40;;;;;;;33.83;27.35;100347.81;4994530;28;20487;-79
2022/07/27 08:13:41;;;;;;;3.72;1.20;;;;;;;34.72;26.48;100355.50;4993145;28;20061;-80
2022/07/27 08:16:07;;;;;;;3.80;1.65;;;;;;;34.48;25.73;100357.22;4994656;28;20026;-80
2022/07/27 08:18:33;;;;;;;2.35;1.42;;;;;;;34.04;26.77;100352.63;4992938;28;20082;-78
2022/07/27 08:20:59;;;;;;;13.05;1.95;;;;;;;34.57;26.60;100364.31;4994063;28;20049;-78
2022/07/27 08:23:30;;;;;;;1.48;1.10;;;;;;;35.84;24.45;100358.00;4994398;28;20027;-79
2022/07/27 08:25:56;;;;;;;2.95;1.65;;;;;;;36.31;23.93;100349.00;4994475;28;20026;-78
2022/07/27 08:28:23;;;;;;;2.55;1.25;;;;;;;36.95;23.20;100368.94;4976719;28;20188;-78
2022/07/27 08:30:49;;;;;;;2.40;1.20;;;;;;;39.03;21.70;100363.38;4992684;28;20046;-78
2022/07/27 08:33:15;;;;;;;3.90;1.30;;;;;;;41.02;19.86;100356.53;4992954;28;20108;-79
2022/07/27 08:35:41;;;;;;;13.40;1.60;;;;;;;42.06;18.22;100350.66;4992694;28;20081;-79
2022/07/27 08:38:08;;;;;;;2.72;1.30;;;;;;;42.35;17.54;100343.00;4993097;28;20467;-79
2022/07/27 08:40:35;;;;;;;2.33;1.10;;;;;;;41.50;17.70;100358.44;4993260;28;20026;-79
2022/07/27 08:43:03;;;;;;;3.47;1.23;;;;;;;40.05;19.21;100347.13;4992804;28;20487;-79
2022/07/27 08:45:29;;;;;;;3.00;1.15;;;;;;;38.54;20.33;100350.50;4976636;28;20030;-79
2022/07/27 08:47:57;;;;;;;9.10;1.90;;;;;;;37.18;22.14;100338.56;4992808;28;20041;-78
2022/07/27 08:50:23;;;;;;;2.05;0.90;;;;;;;37.15;22.03;100339.97;4994158;28;20030;-78
2022/07/27 08:52:54;;;;;;;6.47;1.30;;;;;;;37.39;22.17;100340.19;4993845;28;20032;-79
2022/07/27 08:55:22;;;;;;;4.57;1.35;;;;;;;37.40;21.96;100335.00;4994544;28;20081;-79
2022/07/27 08:57:50;;;;;;;4.82;1.10;;;;;;;37.41;22.10;100339.50;4992605;28;20399;-78
2022/07/27 09:00:22;;;;;;;2.80;1.08;;;;;;;37.29;21.33;100343.50;4976468;28;20030;-79
2022/07/27 09:02:49;;;;;;;2.95;1.40;;;;;;;36.27;22.57;100337.69;4992434;28;20484;-78
2022/07/27 09:05:15;;;;;;;11.63;1.70;;;;;;;35.92;24.26;100338.31;4993108;28;20125;-79
2022/07/27 09:08:14;;;;;;;10.35;2.53;;;;;;;36.24;23.31;100350.91;4993805;28;20475;-78
2022/07/27 09:10:40;;;;;;;5.05;1.10;;;;;;;36.11;22.56;100348.84;4993601;28;20035;-79
2022/07/27 09:13:32;;;;;;;14.20;1.80;;;;;;;35.82;22.63;100346.00;4977969;28;20034;-79
2022/07/27 09:16:02;;;;;;;2.40;1.23;;;;;;;35.50;23.31;100351.94;4995866;28;20046;-79
2022/07/27 09:18:35;;;;;;;6.28;1.73;;;;;;;35.65;23.04;100343.72;4996254;28;20057;-75
2022/07/27 09:21:20;;;;;;;13.43;1.52;;;;;;;35.64;23.31;100345.16;4996512;28;20038;-79
2022/07/27 09:23:52;;;;;;;5.72;1.33;;;;;;;35.63;22.88;100352.53;4996910;28;20027;-79
2022/07/27 09:26:24;;;;;;;6.43;1.23;;;;;;;35.47;22.67;100350.31;4996191;28;20472;-78
2022/07/27 09:29:11;;;;;;;4.32;1.20;;;;;;;34.56;23.14;100345.00;4996307;28;20141;-78
2022/07/27 09:31:50;;;;;;;6.18;1.60;;;;;;;33.53;24.53;100340.94;4995695;28;20033;-79
2022/07/27 09:34:35;;;;;;;3.97;1.27;;;;;;;32.98;25.24;100339.28;4996475;28;20029;-78
2022/07/27 09:37:02;;;;;;;5.53;1.60;;;;;;;33.01;24.99;100340.91;4996273;28;20098;-79
2022/07/27 09:39:28;;;;;;;2.90;1.70;;;;;;;32.87;24.83;100340.88;4996169;28;20068;-78
2022/07/27 09:42:08;;;;;;;8.18;1.88;;;;;;;32.35;25.07;100341.44;4979964;28;20121;-78
2022/07/27 09:44:44;;;;;;;3.15;1.58;;;;;;;31.62;26.07;100339.84;4996764;28;20026;-79
2022/07/27 09:47:29;;;;;;;3.22;1.88;;;;;;;30.83;27.19;100339.84;4997138;28;20157;-78
2022/07/27 09:50:16;;;;;;;2.35;1.58;;;;;;;30.21;27.93;100340.06;4997036;28;20105;-78
2022/07/27 09:52:42;;;;;;;2.80;1.52;;;;;;;29.88;28.60;100334.03;4996886;28;20093;-78
2022/07/27 09:55:09;;;;;;;2.17;1.83;;;;;;;29.71;29.41;100335.09;4979767;28;20038;-79
2022/07/27 09:57:51;;;;;;;5.22;1.95;;;;;;;29.55;29.85;100336.84;4997447;28;20423;-79
2022/07/27 10:00:18;;;;;;;3.15;1.67;;;;;;;29.27;30.35;100314.97;4996975;28;20026;-79
2022/07/27 10:02:44;;;;;;;4.78;1.90;;;;;;;29.16;30.34;100317.81;4997004;28;20030;-78
2022/07/27 10:05:12;;;;;;;4.28;1.98;;;;;;;28.87;32.21;100324.53;4995728;28;20112;-77
2022/07/27 10:07:39;;;;;;;6.05;2.00;;;;;;;28.68;31.02;100323.78;4997027;28;20113;-76
2022/07/27 10:10:05;;;;;;;9.45;2.00;;;;;;;28.51;31.23;100324.72;4996765;28;20137;-77
2022/07/27 10:12:31;;;;;;;2.60;1.73;;;;;;;28.57;31.31;100312.66;4996675;28;20471;-77
2022/07/27 10:14:58;;;;;;;5.70;2.38;;;;;;;28.80;31.44;100318.78;4996842;28;20028;-76
2022/07/27 10:17:24;;;;;;;10.32;2.50;;;;;;;28.86;31.19;100328.84;4996823;28;20026;-77
2022/07/27 10:19:50;;;;;;;13.35;2.70;;;;;;;28.94;30.94;100313.19;4996173;28;20396;-76
2022/07/27 10:22:48;;;;;;;5.47;2.80;;;;;;;28.88;30.72;100314.28;4978891;28;20117;-78
2022/07/27 10:25:14;;;;;;;9.13;2.20;;;;;;;29.03;31.70;100306.53;4980405;28;20034;-76
2022/07/27 10:27:41;;;;;;;11.15;2.17;;;;;;;29.24;30.88;100319.16;4996663;28;20081;-77
2022/07/27 10:30:06;;;;;;;7.38;2.15;;;;;;;29.47;30.46;100317.84;4996892;28;20034;-76
2022/07/27 10:32:42;;;;;;;6.95;2.08;;;;;;;29.83;29.19;100319.66;4996565;28;20359;-76
2022/07/27 10:35:32;;;;;;;5.47;2.33;;;;;;;30.09;29.07;100325.22;4995967;28;20495;-76
2022/07/27 10:38:16;;;;;;;2.42;1.65;;;;;;;30.33;29.22;100311.41;4996581;28;20370;-77
2022/07/27 10:40:43;;;;;;;5.30;1.90;;;;;;;30.45;29.42;100326.97;4996173;28;20077;-75
2022/07/27 10:43:19;;;;;;;4.13;1.80;;;;;;;30.19;28.37;100327.34;4996426;28;20420;-77
2022/07/27 10:45:47;;;;;;;3.92;1.90;;;;;;;29.95;28.68;100330.13;4978743;28;20030;-76
2022/07/27 10:48:39;;;;;;;5.47;1.80;;;;;;;29.75;29.49;100330.88;4978953;28;20038;-75
2022/07/27 10:51:07;;;;;;;7.13;2.33;;;;;;;29.62;29.07;100329.25;4994703;28;20088;-74
2022/07/27 10:53:52;;;;;;;4.63;2.13;;;;;;;29.54;29.76;100340.41;4979074;28;20027;-76
2022/07/27 10:56:45;;;;;;;8.05;1.65;;;;;;;29.64;28.97;100352.94;4996252;28;20030;-76
2022/07/27 10:59:10;;;;;;;8.90;1.90;;;;;;;29.68;29.41;100335.56;4994601;28;20042;-76
2022/07/27 11:01:57;;;;;;;10.65;2.40;;;;;;;29.97;28.68;100347.19;4996232;28;20030;-76
2022/07/27 11:04:24;;;;;;;4.35;1.92;;;;;;;29.82;28.17;100345.44;4978806;28;20026;-77
2022/07/27 11:06:59;;;;;;;8.02;1.48;;;;;;;29.51;28.93;100338.72;4994302;28;20058;-76
2022/07/27 11:09:58;;;;;;;2.83;1.90;;;;;;;29.10;28.42;100341.69;4994263;28;20483;-75
2022/07/27 11:12:27;;;;;;;16.70;2.17;;;;;;;28.67;29.11;100342.81;4994189;28;20038;-75
2022/07/27 11:14:59;;;;;;;7.57;1.70;;;;;;;28.31;29.34;100340.78;4978235;28;20034;-76
2022/07/27 11:17:26;;;;;;;;;;;;;;;28.19;29.86;100336.94;4978579;28;20041;-77
2022/07/27 11:20:11;;;;;;;6.53;1.13;;;;;;;27.90;29.08;100339.81;4995217;28;19927;-76
2022/07/27 11:22:52;;;;;;;4.03;1.92;;;;;;;27.70;29.62;100338.22;4995745;28;20037;-77
2022/07/27 11:25:19;;;;;;;2.92;1.10;;;;;;;27.66;29.84;100329.06;4992921;28;20100;-78
2022/07/27 11:27:49;;;;;;;6.43;1.40;;;;;;;27.66;30.23;100326.91;4995047;28;20422;-78
2022/07/27 11:30:25;;;;;;;4.97;1.60;;;;;;;27.62;30.58;100344.19;4993991;28;20026;-77
2022/07/27 11:33:06;;;;;;;2.58;1.50;;;;;;;27.83;29.98;100346.59;4977753;28;20026;-79
2022/07/27 11:35:33;;;;;;;10.23;2.03;;;;;;;28.14;29.59;100343.91;4993536;28;20056;-77